createdAt,value
2024-03-08T00:00:55.220Z,12.37
2024-03-08T00:03:24.348Z,13.43
2024-03-08T00:05:52.893Z,11.27
2024-03-08T00:08:21.311Z,12.90
2024-03-08T00:10:49.731Z,12.60
2024-03-08T00:13:18.374Z,11.50
2024-03-08T00:15:48.172Z,12.30
2024-03-08T00:18:16.774Z,11.30
2024-03-08T00:20:46.023Z,12.93
2024-03-08T00:23:14.502Z,12.47
2024-03-08T00:25:42.932Z,11.33
2024-03-08T00:28:14.579Z,11.50
2024-03-08T00:30:43.837Z,12.17
2024-03-08T00:33:14.283Z,11.33
2024-03-08T00:35:42.761Z,12.17
2024-03-08T00:38:11.116Z,13.23
2024-03-08T00:40:39.445Z,12.40
2024-03-08T00:43:07.810Z,12.30
2024-03-08T00:45:36.160Z,13.00
2024-03-08T00:48:04.689Z,12.20
2024-03-08T00:50:35.005Z,12.77
2024-03-08T00:53:03.111Z,11.30
2024-03-08T00:55:31.651Z,12.50
2024-03-08T00:57:59.986Z,11.73
2024-03-08T01:00:29.003Z,12.07
2024-03-08T01:02:57.446Z,13.17
2024-03-08T01:05:25.971Z,13.00
2024-03-08T01:07:55.672Z,12.17
2024-03-08T01:10:24.040Z,12.77
2024-03-08T01:12:52.350Z,12.40
2024-03-08T01:15:20.895Z,13.97
2024-03-08T01:17:49.348Z,12.13
2024-03-08T01:20:18.966Z,12.63
2024-03-08T01:22:47.552Z,12.33
2024-03-08T01:25:17.336Z,12.27
2024-03-08T01:27:45.710Z,13.10
2024-03-08T01:30:14.403Z,12.87
2024-03-08T01:32:43.737Z,12.83
2024-03-08T01:35:12.124Z,13.30
2024-03-08T01:37:40.458Z,13.37
2024-03-08T01:40:10.777Z,12.97
2024-03-08T01:42:40.435Z,11.57
2024-03-08T01:45:09.226Z,12.93
2024-03-08T01:47:37.926Z,12.43
2024-03-08T01:50:08.041Z,11.90
2024-03-08T01:52:36.922Z,11.67
2024-03-08T01:55:08.185Z,12.90
2024-03-08T01:57:37.031Z,11.60
2024-03-08T02:00:11.379Z,12.47
2024-03-08T02:02:41.378Z,12.53
2024-03-08T02:05:09.857Z,13.00
2024-03-08T02:07:38.441Z,12.77
2024-03-08T02:10:07.610Z,12.60
2024-03-08T02:12:35.971Z,12.33
2024-03-08T02:15:04.431Z,12.87
2024-03-08T02:17:34.566Z,11.63
2024-03-08T02:20:05.088Z,11.70
2024-03-08T02:22:34.873Z,11.63
2024-03-08T02:25:03.719Z,10.90
2024-03-08T02:27:32.283Z,12.40
2024-03-08T02:30:01.090Z,13.13
2024-03-08T02:32:29.379Z,13.57
2024-03-08T02:35:01.215Z,13.87
2024-03-08T02:37:30.266Z,12.17
2024-03-08T02:40:00.021Z,12.43
2024-03-08T02:42:28.625Z,12.70
2024-03-08T02:44:57.002Z,10.80
2024-03-08T02:47:28.024Z,13.73
2024-03-08T02:49:57.011Z,12.93
2024-03-08T02:52:25.784Z,13.20
2024-03-08T02:54:54.433Z,12.90
2024-03-08T02:57:24.393Z,12.00
2024-03-08T02:59:52.765Z,12.00
2024-03-08T03:02:21.248Z,12.03
2024-03-08T03:04:49.661Z,11.57
2024-03-08T03:07:18.042Z,12.10
2024-03-08T03:09:46.498Z,12.00
2024-03-08T03:12:15.302Z,12.50
2024-03-08T03:14:45.137Z,13.03
2024-03-08T03:17:13.484Z,12.37
2024-03-08T03:19:44.186Z,12.43
2024-03-08T03:22:12.489Z,13.03
2024-03-08T03:24:41.197Z,13.73
2024-03-08T03:27:12.707Z,13.10
2024-03-08T03:29:43.385Z,14.23
2024-03-08T03:32:13.244Z,11.50
2024-03-08T03:34:41.688Z,12.00
2024-03-08T03:37:13.484Z,11.33
2024-03-08T03:39:49.824Z,12.77
2024-03-08T03:42:18.972Z,12.37
2024-03-08T03:44:48.294Z,12.87
2024-03-08T03:47:18.424Z,12.23
2024-03-08T03:49:47.242Z,13.47
2024-03-08T03:52:16.696Z,13.33
2024-03-08T03:54:45.054Z,12.80
2024-03-08T03:57:13.816Z,13.27
2024-03-08T03:59:43.433Z,12.53
2024-03-08T04:02:11.858Z,14.07
2024-03-08T04:04:41.522Z,11.63
2024-03-08T04:07:10.981Z,14.07
2024-03-08T04:09:39.573Z,12.83
2024-03-08T04:12:08.280Z,13.87
2024-03-08T04:14:36.678Z,13.50
2024-03-08T04:17:05.065Z,13.53
2024-03-08T04:19:33.398Z,14.13
2024-03-08T04:22:03.400Z,14.53
2024-03-08T04:24:32.252Z,13.67
2024-03-08T04:27:00.675Z,13.67
2024-03-08T04:29:28.848Z,13.23
2024-03-08T04:31:57.177Z,14.00
2024-03-08T04:34:26.035Z,13.73
2024-03-08T04:36:54.606Z,13.23
2024-03-08T04:39:24.357Z,13.60
2024-03-08T04:41:53.161Z,12.87
2024-03-08T04:44:21.530Z,13.90
2024-03-08T04:46:50.261Z,13.67
2024-03-08T04:49:18.729Z,14.73
2024-03-08T04:51:47.456Z,13.53
2024-03-08T04:54:15.802Z,14.30
2024-03-08T04:56:45.516Z,13.73
2024-03-08T04:59:14.777Z,13.97
2024-03-08T05:01:42.809Z,14.70
2024-03-08T05:04:11.143Z,14.97
2024-03-08T05:06:39.910Z,15.07
2024-03-08T05:09:14.768Z,14.13
2024-03-08T05:11:45.073Z,14.10
2024-03-08T05:14:16.052Z,13.17
2024-03-08T05:16:44.323Z,15.17
2024-03-08T05:19:12.657Z,14.00
2024-03-08T05:21:40.987Z,12.80
2024-03-08T05:24:11.168Z,14.90
2024-03-08T05:26:39.555Z,13.77
2024-03-08T05:29:10.152Z,15.03
2024-03-08T05:31:41.481Z,15.43
2024-03-08T05:34:11.471Z,15.10
2024-03-08T05:36:42.594Z,14.63
2024-03-08T05:39:12.913Z,14.37
2024-03-08T05:41:41.618Z,13.83
2024-03-08T05:44:11.497Z,14.13
2024-03-08T05:46:40.313Z,13.03
2024-03-08T05:49:11.682Z,14.33
2024-03-08T05:51:41.335Z,14.97
2024-03-08T05:54:11.189Z,14.47
2024-03-08T05:56:40.252Z,15.17
2024-03-08T05:59:08.637Z,15.57
2024-03-08T06:01:39.058Z,15.27
2024-03-08T06:04:08.383Z,16.17
2024-03-08T06:06:39.274Z,15.10
2024-03-08T06:09:12.639Z,13.37
2024-03-08T06:11:41.465Z,15.13
2024-03-08T06:14:10.053Z,14.90
2024-03-08T06:16:40.084Z,16.07
2024-03-08T06:19:09.050Z,15.57
2024-03-08T06:21:37.432Z,15.23
2024-03-08T06:24:06.075Z,15.80
2024-03-08T06:26:37.212Z,16.23
2024-03-08T06:29:07.881Z,16.10
2024-03-08T06:31:40.083Z,12.97
2024-03-08T06:34:10.638Z,16.53
2024-03-08T06:36:40.341Z,15.03
2024-03-08T06:39:11.009Z,16.70
2024-03-08T06:41:40.119Z,15.73
2024-03-08T06:44:10.299Z,16.83
2024-03-08T06:46:39.389Z,15.37
2024-03-08T06:49:08.846Z,15.83
2024-03-08T06:51:38.566Z,14.50
2024-03-08T06:54:10.173Z,15.17
2024-03-08T06:56:39.460Z,16.80
2024-03-08T06:59:07.749Z,16.27
2024-03-08T07:01:37.787Z,15.70
2024-03-08T07:04:07.615Z,15.90
2024-03-08T07:06:37.937Z,15.23
2024-03-08T07:09:07.410Z,14.00
2024-03-08T07:11:35.996Z,17.13
2024-03-08T07:14:07.581Z,15.87
2024-03-08T07:16:36.547Z,14.57
2024-03-08T07:19:04.749Z,13.70
2024-03-08T07:21:33.126Z,15.43
2024-03-08T07:24:25.625Z,14.93
2024-03-08T07:26:56.504Z,15.23
2024-03-08T07:29:24.143Z,14.00
2024-03-08T07:32:03.509Z,14.93
2024-03-08T07:34:33.047Z,16.23
2024-03-08T07:37:01.521Z,15.67
2024-03-08T07:39:29.967Z,16.03
2024-03-08T07:41:59.783Z,14.70
2024-03-08T07:44:28.143Z,15.07
2024-03-08T07:46:58.304Z,16.00
2024-03-08T07:49:26.866Z,14.73
2024-03-08T07:51:55.185Z,15.17
2024-03-08T07:54:23.551Z,13.77
2024-03-08T07:56:52.347Z,14.43
2024-03-08T07:59:22.597Z,14.83
2024-03-08T08:01:51.017Z,15.60
2024-03-08T08:04:20.306Z,15.87
2024-03-08T08:06:48.767Z,15.50
2024-03-08T08:09:23.401Z,14.17
2024-03-08T08:11:51.732Z,14.73
2024-03-08T08:14:22.377Z,15.03
2024-03-08T08:16:54.012Z,14.60
2024-03-08T08:19:22.511Z,15.00
2024-03-08T08:21:50.923Z,15.00
2024-03-08T08:24:21.121Z,14.90
2024-03-08T08:26:49.414Z,15.43
2024-03-08T08:29:18.049Z,14.43
2024-03-08T08:31:46.535Z,13.37
2024-03-08T08:34:16.346Z,15.00
2024-03-08T08:36:44.670Z,14.97
2024-03-08T08:39:14.749Z,14.67
2024-03-08T08:41:43.273Z,14.50
2024-03-08T08:44:16.379Z,15.40
2024-03-08T08:46:45.309Z,13.63
2024-03-08T08:49:15.840Z,16.07
2024-03-08T08:51:51.477Z,14.70
2024-03-08T08:54:19.872Z,14.93
2024-03-08T08:56:48.449Z,15.03
2024-03-08T08:59:18.282Z,14.00
2024-03-08T09:01:48.830Z,14.27
2024-03-08T09:04:17.587Z,14.47
2024-03-08T09:06:47.288Z,13.00
2024-03-08T09:09:15.455Z,14.23
2024-03-08T09:11:44.599Z,15.47
2024-03-08T09:14:13.437Z,14.13
2024-03-08T09:16:42.182Z,13.03
2024-03-08T09:19:12.140Z,13.27
2024-03-08T09:21:41.226Z,15.07
2024-03-08T09:24:10.794Z,13.00
2024-03-08T09:26:39.444Z,13.50
2024-03-08T09:29:08.148Z,13.50
2024-03-08T09:31:36.266Z,12.63
2024-03-08T09:34:04.687Z,13.23
2024-03-08T09:36:34.302Z,15.03
2024-03-08T09:39:04.106Z,13.07
2024-03-08T09:41:35.097Z,12.77
2024-03-08T09:44:05.141Z,12.37
2024-03-08T09:46:33.366Z,13.40
2024-03-08T09:49:02.499Z,13.47
2024-03-08T09:51:31.703Z,13.07
2024-03-08T09:54:02.860Z,12.60
2024-03-08T09:56:35.361Z,11.77
2024-03-08T09:59:42.490Z,12.53
2024-03-08T10:02:17.138Z,12.13
2024-03-08T10:04:47.679Z,12.27
2024-03-08T10:07:16.558Z,12.53
2024-03-08T10:09:50.642Z,11.87
2024-03-08T10:12:20.355Z,12.67
2024-03-08T10:14:48.816Z,11.27
2024-03-08T10:17:16.866Z,12.30
2024-03-08T10:19:52.859Z,12.33
2024-03-08T10:22:21.241Z,11.83
2024-03-08T10:24:49.907Z,11.57
2024-03-08T10:27:20.468Z,11.90
2024-03-08T10:29:51.574Z,12.43
2024-03-08T10:32:19.626Z,11.57
2024-03-08T10:34:48.938Z,10.30
2024-03-08T10:37:19.599Z,11.17
2024-03-08T10:40:00.889Z,11.20
2024-03-08T10:42:35.937Z,10.87
2024-03-08T10:45:13.595Z,10.77
2024-03-08T10:47:44.182Z,10.73
2024-03-08T10:50:21.962Z,11.03
2024-03-08T10:52:51.972Z,11.20
2024-03-08T10:55:21.604Z,12.23
2024-03-08T10:57:52.182Z,10.50
2024-03-08T11:00:27.779Z,10.23
2024-03-08T11:02:56.516Z,11.37
2024-03-08T11:05:40.403Z,10.70
2024-03-08T11:08:20.921Z,9.80
2024-03-08T11:10:52.728Z,11.77
2024-03-08T11:13:38.405Z,11.23
2024-03-08T11:16:10.767Z,10.13
2024-03-08T11:18:39.797Z,10.20
2024-03-08T11:21:13.737Z,10.02
2024-03-08T11:23:42.932Z,9.50
2024-03-08T11:26:20.457Z,9.83
2024-03-08T11:28:53.050Z,9.18
2024-03-08T11:31:29.529Z,8.88
2024-03-08T11:33:58.936Z,8.93
2024-03-08T11:36:27.377Z,8.97
2024-03-08T11:38:57.200Z,9.13
2024-03-08T11:41:26.533Z,8.27
2024-03-08T11:44:07.926Z,9.43
2024-03-08T11:46:36.680Z,9.67
2024-03-08T11:49:06.845Z,10.43
2024-03-08T11:51:35.157Z,10.53
2024-03-08T11:54:03.751Z,10.80
2024-03-08T11:56:33.311Z,10.20
2024-03-08T11:59:03.061Z,10.73
2024-03-08T12:01:33.231Z,9.40
2024-03-08T12:04:02.559Z,10.27
2024-03-08T12:06:41.666Z,10.43
2024-03-08T12:09:13.992Z,10.80
2024-03-08T12:11:44.042Z,10.40
2024-03-08T12:14:12.472Z,10.83
2024-03-08T12:16:42.057Z,10.13
2024-03-08T12:19:10.448Z,11.33
2024-03-08T12:21:38.844Z,10.80
2024-03-08T12:24:09.947Z,9.87
2024-03-08T12:26:41.258Z,11.90
2024-03-08T12:29:21.465Z,10.23
2024-03-08T12:31:53.220Z,10.90
2024-03-08T12:34:21.764Z,9.67
2024-03-08T12:36:51.440Z,10.77
2024-03-08T12:39:23.356Z,10.00
2024-03-08T12:41:52.770Z,9.80
2024-03-08T12:44:22.762Z,10.20
2024-03-08T12:46:53.702Z,10.50
2024-03-08T12:49:23.650Z,10.27
2024-03-08T12:51:53.757Z,9.50
2024-03-08T12:54:24.900Z,10.27
2024-03-08T12:56:54.923Z,10.47
2024-03-08T12:59:24.602Z,10.83
2024-03-08T13:01:55.320Z,11.13
2024-03-08T13:04:23.739Z,10.47
2024-03-08T13:06:55.091Z,11.97
2024-03-08T13:09:24.715Z,10.07
2024-03-08T13:11:54.890Z,10.17
2024-03-08T13:14:23.282Z,10.13
2024-03-08T13:16:52.846Z,11.00
2024-03-08T13:19:23.193Z,9.43
2024-03-08T13:21:51.394Z,10.00
2024-03-08T13:24:20.164Z,10.50
2024-03-08T13:26:49.216Z,10.50
2024-03-08T13:29:19.622Z,10.47
2024-03-08T13:31:52.753Z,10.07
2024-03-08T13:34:28.952Z,10.57
2024-03-08T13:37:01.747Z,9.87
2024-03-08T13:39:32.379Z,10.33
2024-03-08T13:42:00.723Z,10.70
2024-03-08T13:44:29.138Z,10.60
2024-03-08T13:46:59.401Z,10.33
2024-03-08T13:49:28.530Z,9.80
2024-03-08T13:51:58.336Z,10.53
2024-03-08T13:54:31.555Z,11.13
2024-03-08T13:57:00.033Z,10.50
2024-03-08T13:59:30.348Z,10.90
2024-03-08T14:02:00.859Z,9.50
2024-03-08T14:04:29.305Z,10.57
2024-03-08T14:07:02.835Z,10.97
2024-03-08T14:09:32.741Z,10.63
2024-03-08T14:12:01.088Z,10.43
2024-03-08T14:14:29.392Z,9.60
2024-03-08T14:16:59.410Z,9.90
2024-03-08T14:19:27.970Z,11.70
2024-03-08T14:21:56.070Z,10.63
2024-03-08T14:24:25.061Z,9.70
2024-03-08T14:26:55.188Z,10.40
2024-03-08T14:29:23.531Z,11.60
2024-03-08T14:31:51.899Z,10.90
2024-03-08T14:34:21.493Z,10.17
2024-03-08T14:36:49.638Z,11.13
2024-03-08T14:39:22.736Z,10.73
2024-03-08T14:41:50.848Z,11.00
2024-03-08T14:44:20.305Z,11.90
2024-03-08T14:46:50.054Z,10.93
2024-03-08T14:49:19.896Z,11.53
2024-03-08T14:51:48.203Z,11.80
2024-03-08T14:54:16.437Z,12.10
2024-03-08T14:56:44.729Z,11.13
2024-03-08T14:59:14.498Z,11.50
2024-03-08T15:01:44.262Z,10.87
2024-03-08T15:04:12.662Z,11.37
2024-03-08T15:06:41.260Z,11.63
2024-03-08T15:09:13.451Z,11.90
2024-03-08T15:11:43.117Z,11.73
2024-03-08T15:14:12.833Z,9.77
2024-03-08T15:16:42.428Z,10.37
2024-03-08T15:19:13.158Z,10.77
2024-03-08T15:21:42.214Z,9.53
2024-03-08T15:24:16.099Z,10.23
2024-03-08T15:26:48.079Z,10.10
2024-03-08T15:29:25.457Z,10.43
2024-03-08T15:31:55.133Z,10.67
2024-03-08T15:34:25.214Z,10.03
2024-03-08T15:36:54.431Z,9.43
2024-03-08T15:39:24.246Z,10.13
2024-03-08T15:41:52.496Z,11.07
2024-03-08T15:44:21.824Z,10.20
2024-03-08T15:46:50.967Z,10.90
2024-03-08T15:49:19.967Z,9.93
2024-03-08T15:51:50.826Z,10.20
2024-03-08T15:54:19.732Z,10.47
2024-03-08T15:56:48.056Z,10.10
2024-03-08T15:59:16.803Z,9.70
2024-03-08T16:01:49.854Z,10.27
2024-03-08T16:04:18.312Z,10.63
2024-03-08T16:06:46.740Z,10.00
2024-03-08T16:09:16.694Z,10.10
2024-03-08T16:11:45.618Z,9.80
2024-03-08T16:14:17.195Z,9.63
2024-03-08T16:16:45.744Z,10.77
2024-03-08T16:19:15.020Z,10.90
2024-03-08T16:21:44.838Z,11.63
2024-03-08T16:24:13.176Z,10.50
2024-03-08T16:26:42.535Z,10.43
2024-03-08T16:29:10.994Z,11.40
2024-03-08T16:31:39.435Z,11.03
2024-03-08T16:34:09.654Z,9.93
2024-03-08T16:36:41.086Z,11.17
2024-03-08T16:39:10.553Z,11.23
2024-03-08T16:41:38.860Z,11.30
2024-03-08T16:44:10.023Z,11.43
2024-03-08T16:46:40.781Z,11.40
2024-03-08T16:49:11.535Z,11.43
2024-03-08T16:51:40.187Z,11.60
2024-03-08T16:54:09.481Z,12.13
2024-03-08T16:56:39.254Z,11.47
2024-03-08T16:59:09.694Z,12.07
2024-03-08T17:01:39.665Z,12.20
2024-03-08T17:04:08.314Z,11.63
2024-03-08T17:06:36.636Z,11.60
2024-03-08T17:09:11.787Z,11.23
2024-03-08T17:11:40.324Z,10.40
2024-03-08T17:14:09.747Z,11.70
2024-03-08T17:16:38.690Z,11.30
2024-03-08T17:19:07.697Z,11.27
2024-03-08T17:21:36.094Z,12.17
2024-03-08T17:24:04.992Z,11.27
2024-03-08T17:26:33.347Z,12.60
2024-03-08T17:29:01.794Z,12.37
2024-03-08T17:31:33.185Z,12.57
2024-03-08T17:34:02.075Z,12.70
2024-03-08T17:36:30.446Z,12.17
2024-03-08T17:38:58.791Z,11.73
2024-03-08T17:41:27.085Z,12.00
2024-03-08T17:43:55.668Z,11.60
2024-03-08T17:46:23.711Z,11.63
2024-03-08T17:48:55.066Z,11.47
2024-03-08T17:51:23.723Z,12.73
2024-03-08T17:53:52.250Z,12.07
2024-03-08T17:56:20.699Z,12.13
2024-03-08T17:58:52.365Z,13.20
2024-03-08T18:01:20.986Z,11.07
2024-03-08T18:03:50.527Z,11.97
2024-03-08T18:06:19.970Z,12.50
2024-03-08T18:08:48.279Z,12.40
2024-03-08T18:11:17.253Z,11.60
2024-03-08T18:13:45.638Z,11.73
2024-03-08T18:16:13.955Z,13.00
2024-03-08T18:18:42.353Z,12.80
2024-03-08T18:21:10.646Z,12.80
2024-03-08T18:23:41.377Z,12.60
2024-03-08T18:26:09.778Z,11.87
2024-03-08T18:28:39.376Z,12.30
2024-03-08T18:31:08.153Z,12.83
2024-03-08T18:33:36.237Z,11.53
2024-03-08T18:36:07.780Z,13.13
2024-03-08T18:38:36.136Z,12.87
2024-03-08T18:41:06.023Z,13.30
2024-03-08T18:43:35.233Z,12.50
2024-03-08T18:46:05.296Z,12.20
2024-03-08T18:48:33.711Z,11.77
2024-03-08T18:51:02.170Z,13.07
2024-03-08T18:53:31.501Z,13.03
2024-03-08T18:56:00.077Z,14.03
2024-03-08T18:58:39.337Z,13.70
2024-03-08T19:01:14.077Z,13.57
2024-03-08T19:03:47.028Z,14.10
2024-03-08T19:06:19.039Z,13.43
2024-03-08T19:08:49.613Z,12.77
2024-03-08T19:11:18.060Z,12.63
2024-03-08T19:13:47.965Z,12.73
2024-03-08T19:16:17.822Z,12.80
2024-03-08T19:18:46.253Z,13.47
2024-03-08T19:21:14.828Z,13.30
2024-03-08T19:23:45.375Z,12.00
2024-03-08T19:26:13.888Z,11.33
2024-03-08T19:28:42.678Z,13.40
2024-03-08T19:31:12.442Z,13.03
2024-03-08T19:33:41.490Z,13.43
2024-03-08T19:36:13.492Z,13.53
2024-03-08T19:38:41.924Z,12.97
2024-03-08T19:41:13.140Z,12.63
2024-03-08T19:43:42.617Z,14.50
2024-03-08T19:46:13.066Z,13.27
2024-03-08T19:48:44.667Z,14.20
2024-03-08T19:51:14.643Z,13.43
2024-03-08T19:53:43.391Z,14.47
2024-03-08T19:56:11.777Z,13.27
2024-03-08T19:58:39.891Z,13.80
2024-03-08T20:01:10.502Z,14.53
2024-03-08T20:03:40.534Z,13.83
2024-03-08T20:06:09.186Z,13.37
2024-03-08T20:08:42.109Z,14.00
2024-03-08T20:11:11.691Z,15.30
2024-03-08T20:13:41.868Z,14.10
2024-03-08T20:16:10.572Z,14.57
2024-03-08T20:18:40.523Z,13.80
2024-03-08T20:21:09.335Z,14.60
2024-03-08T20:23:37.827Z,14.57
2024-03-08T20:26:11.965Z,14.47
2024-03-08T20:28:43.140Z,14.03
2024-03-08T20:31:13.572Z,14.20
2024-03-08T20:33:44.607Z,13.33
2024-03-08T20:36:13.135Z,14.53
2024-03-08T20:38:42.507Z,13.20
2024-03-08T20:41:12.770Z,15.10
2024-03-08T20:43:42.533Z,15.97
2024-03-08T20:46:12.064Z,13.87
2024-03-08T20:48:41.491Z,16.13
2024-03-08T20:51:12.832Z,14.53
2024-03-08T20:53:42.293Z,14.40
2024-03-08T20:56:11.070Z,14.50
2024-03-08T20:58:39.954Z,14.03
2024-03-08T21:01:10.033Z,14.47
2024-03-08T21:03:38.898Z,14.27
2024-03-08T21:06:08.639Z,15.57
2024-03-08T21:08:39.511Z,14.20
2024-03-08T21:11:10.252Z,14.83
2024-03-08T21:13:38.786Z,15.53
2024-03-08T21:16:07.474Z,15.97
2024-03-08T21:18:37.761Z,14.27
2024-03-08T21:21:07.220Z,15.03
2024-03-08T21:23:35.528Z,14.83
2024-03-08T21:26:10.384Z,14.67
2024-03-08T21:28:39.336Z,15.20
2024-03-08T21:31:07.753Z,15.90
2024-03-08T21:33:37.265Z,15.23
2024-03-08T21:36:05.894Z,14.30
2024-03-08T21:38:34.344Z,15.40
2024-03-08T21:41:04.362Z,14.43
2024-03-08T21:43:36.055Z,15.67
2024-03-08T21:46:05.203Z,14.13
2024-03-08T21:48:34.106Z,15.67
2024-03-08T21:51:02.704Z,14.10
2024-03-08T21:53:35.358Z,15.83
2024-03-08T21:56:05.884Z,14.87
2024-03-08T21:58:36.074Z,15.27
2024-03-08T22:01:05.995Z,16.10
2024-03-08T22:03:36.819Z,15.33
2024-03-08T22:06:11.041Z,16.50
2024-03-08T22:08:41.616Z,14.93
2024-03-08T22:11:10.242Z,15.77
2024-03-08T22:13:40.550Z,16.00
2024-03-08T22:16:10.067Z,15.93
2024-03-08T22:18:38.638Z,15.33
2024-03-08T22:21:07.978Z,14.33
2024-03-08T22:23:38.739Z,16.00
2024-03-08T22:26:10.999Z,15.53
2024-03-08T22:28:42.688Z,16.03
2024-03-08T22:31:11.134Z,14.33
2024-03-08T22:33:40.360Z,14.50
2024-03-08T22:36:09.377Z,14.90
2024-03-08T22:38:37.993Z,15.30
2024-03-08T22:41:10.931Z,15.30
2024-03-08T22:43:42.466Z,15.67
2024-03-08T22:46:11.473Z,15.30
2024-03-08T22:48:41.954Z,15.53
2024-03-08T22:51:12.484Z,14.50
2024-03-08T22:53:42.447Z,14.83
2024-03-08T22:56:12.293Z,16.10
2024-03-08T22:58:45.085Z,15.10
2024-03-08T23:01:17.676Z,16.90
2024-03-08T23:03:47.026Z,16.03
2024-03-08T23:06:22.069Z,15.27
2024-03-08T23:08:51.595Z,14.67
2024-03-08T23:11:20.159Z,14.43
2024-03-08T23:13:50.151Z,16.63
2024-03-08T23:16:18.463Z,15.10
2024-03-08T23:18:49.471Z,15.37
2024-03-08T23:21:17.885Z,14.67
2024-03-08T23:23:47.532Z,15.33
2024-03-08T23:26:16.483Z,14.63
2024-03-08T23:28:45.546Z,15.30
2024-03-08T23:31:15.618Z,14.07
2024-03-08T23:33:47.510Z,15.27
2024-03-08T23:36:15.816Z,15.63
2024-03-08T23:38:44.185Z,14.33
2024-03-08T23:41:12.579Z,14.40
2024-03-08T23:43:44.362Z,15.00
2024-03-08T23:46:13.451Z,16.03
2024-03-08T23:48:44.783Z,15.87
2024-03-08T23:51:13.908Z,14.77
2024-03-08T23:53:42.455Z,16.40
2024-03-08T23:56:12.473Z,14.50
2024-03-08T23:58:42.151Z,15.50
